Time;durP1;ratioP1;P1;durP2;ratioP2;P2;SDS_P1;SDS_P2;PMS_P1;PMS_P2;Temp;Humidity;BMP_temperature;BMP_pressure;BME280_temperature;BME280_humidity;BME280_pressure;Samples;Min_cycle;Max_cycle;Signal;HPM_P1;HPM_P2
2023/09/07 00:00:13;;;;;;;12.07;5.93;;;14.10;99.90;;;;;;5088865;28;20035;-71
2023/09/07 00:02:39;;;;;;;11.48;5.65;;;14.00;99.90;;;;;;5086265;28;20089;-72
2023/09/07 00:05:06;;;;;;;11.27;6.07;;;14.00;99.90;;;;;;5088837;28;20035;-72
2023/09/07 00:07:32;;;;;;;12.85;6.00;;;14.00;99.90;;;;;;5086862;28;20149;-72
2023/09/07 00:09:58;;;;;;;11.93;5.57;;;14.00;99.90;;;;;;5086963;28;20111;-71
2023/09/07 00:12:23;;;;;;;10.13;5.75;;;13.90;99.90;;;;;;5085922;28;20024;-72
2023/09/07 00:14:49;;;;;;;9.98;5.70;;;13.90;99.90;;;;;;5087286;28;20064;-72
2023/09/07 00:17:14;;;;;;;11.68;5.80;;;13.90;99.90;;;;;;5086967;28;20097;-71
2023/09/07 00:19:40;;;;;;;12.90;5.72;;;13.90;99.90;;;;;;5087775;28;20040;-71
2023/09/07 00:22:06;;;;;;;12.60;6.05;;;13.90;99.90;;;;;;5087246;28;20429;-71
2023/09/07 00:24:31;;;;;;;14.27;5.53;;;13.80;99.90;;;;;;5087174;28;20077;-72
2023/09/07 00:26:58;;;;;;;12.55;6.07;;;13.80;99.90;;;;;;5086337;28;20032;-71
2023/09/07 00:29:23;;;;;;;11.85;5.70;;;13.80;99.90;;;;;;5067541;28;20051;-72
2023/09/07 00:31:49;;;;;;;11.38;5.70;;;13.80;99.90;;;;;;5088391;28;20059;-73
2023/09/07 00:34:15;;;;;;;11.98;5.80;;;13.80;99.90;;;;;;5087538;28;20060;-72
2023/09/07 00:36:40;;;;;;;13.77;5.50;;;13.80;99.90;;;;;;5086936;28;20047;-72
2023/09/07 00:39:06;;;;;;;11.35;5.88;;;13.70;99.90;;;;;;5088452;28;20024;-72
2023/09/07 00:41:31;;;;;;;13.02;5.78;;;13.70;99.90;;;;;;5085626;28;20116;-72
2023/09/07 00:43:57;;;;;;;10.18;5.32;;;13.70;99.90;;;;;;5085472;28;20126;-72
2023/09/07 00:46:23;;;;;;;16.63;6.32;;;13.70;99.90;;;;;;5086753;28;20357;-74
2023/09/07 00:48:49;;;;;;;14.68;5.78;;;13.60;99.90;;;;;;5087179;28;20063;-71
2023/09/07 00:51:15;;;;;;;10.70;5.57;;;13.60;99.90;;;;;;5087135;28;20046;-72
2023/09/07 00:53:41;;;;;;;8.80;5.68;;;13.60;99.90;;;;;;5086047;28;20054;-72
2023/09/07 00:56:07;;;;;;;15.93;5.90;;;13.60;99.90;;;;;;5085869;28;20032;-71
2023/09/07 00:58:33;;;;;;;13.43;5.50;;;13.50;99.90;;;;;;5086538;28;20040;-72
2023/09/07 01:00:59;;;;;;;10.77;5.03;;;13.40;99.90;;;;;;5087259;28;20043;-72
2023/09/07 01:03:25;;;;;;;12.63;5.38;;;13.30;99.90;;;;;;5086361;28;20052;-72
2023/09/07 01:05:55;;;;;;;11.10;5.60;;;13.30;99.90;;;;;;5077923;28;20488;-73
2023/09/07 01:08:27;;;;;;;12.40;5.40;;;13.30;99.90;;;;;;5082997;28;20028;-74
2023/09/07 01:10:53;;;;;;;12.98;5.32;;;13.30;99.90;;;;;;5086633;28;20044;-72
2023/09/07 01:13:19;;;;;;;11.63;5.97;;;13.20;99.90;;;;;;5086899;28;20107;-71
2023/09/07 01:15:46;;;;;;;11.82;5.93;;;13.20;99.90;;;;;;5086185;28;20027;-72
2023/09/07 01:18:12;;;;;;;11.68;5.75;;;13.10;99.90;;;;;;5085019;28;20032;-71
2023/09/07 01:20:40;;;;;;;14.95;6.28;;;13.10;99.90;;;;;;5086304;28;20024;-72
2023/09/07 01:23:07;;;;;;;16.58;6.20;;;13.10;99.90;;;;;;5085938;28;20028;-71
2023/09/07 01:25:34;;;;;;;9.73;6.13;;;13.10;99.90;;;;;;5070539;28;20039;-71
2023/09/07 01:27:59;;;;;;;10.60;5.68;;;13.10;99.90;;;;;;5090319;28;20032;-71
2023/09/07 01:30:28;;;;;;;11.93;6.07;;;13.20;99.90;;;;;;5089102;28;20036;-72
2023/09/07 01:32:54;;;;;;;11.68;5.75;;;13.20;99.90;;;;;;5090871;28;20472;-71
2023/09/07 01:35:21;;;;;;;12.85;6.05;;;13.20;99.90;;;;;;5090660;28;20085;-71
2023/09/07 01:37:47;;;;;;;9.48;5.60;;;13.20;99.90;;;;;;5089695;28;20392;-71
2023/09/07 01:40:13;;;;;;;15.23;6.03;;;13.20;99.90;;;;;;5088042;28;20035;-71
2023/09/07 01:42:39;;;;;;;10.45;6.32;;;13.20;99.90;;;;;;5089371;28;20086;-72
2023/09/07 01:45:05;;;;;;;11.25;5.95;;;13.20;99.90;;;;;;5060027;28;20028;-73
2023/09/07 01:47:31;;;;;;;10.90;5.50;;;13.20;99.90;;;;;;5085414;28;20391;-72
2023/09/07 01:49:56;;;;;;;11.00;6.03;;;13.20;99.90;;;;;;5087828;28;20036;-72
2023/09/07 01:52:22;;;;;;;9.02;5.25;;;13.20;99.90;;;;;;5087502;28;20032;-73
2023/09/07 01:54:48;;;;;;;10.25;5.93;;;13.20;99.90;;;;;;5071250;28;20032;-73
2023/09/07 01:57:13;;;;;;;12.13;5.70;;;13.20;99.90;;;;;;5091718;28;20030;-71
2023/09/07 01:59:39;;;;;;;9.70;6.03;;;13.20;99.90;;;;;;5086941;28;20391;-71
2023/09/07 02:02:05;;;;;;;11.05;6.47;;;13.20;99.90;;;;;;5091420;28;20047;-71
2023/09/07 02:04:30;;;;;;;12.80;5.70;;;13.20;99.90;;;;;;5090478;28;20090;-71
2023/09/07 02:06:56;;;;;;;16.25;5.68;;;13.20;99.90;;;;;;5089164;28;20020;-72
2023/09/07 02:09:22;;;;;;;10.02;5.60;;;13.10;99.90;;;;;;5089203;28;20051;-72
2023/09/07 02:11:47;;;;;;;10.98;5.80;;;13.10;99.90;;;;;;5089076;28;20063;-72
2023/09/07 02:14:13;;;;;;;16.35;5.55;;;13.10;99.90;;;;;;5089812;28;20043;-72
2023/09/07 02:16:38;;;;;;;11.18;6.10;;;13.00;99.90;;;;;;5088855;28;20063;-72
2023/09/07 02:19:06;;;;;;;9.85;5.70;;;12.90;99.90;;;;;;5089411;28;20090;-72
2023/09/07 02:21:32;;;;;;;11.48;5.53;;;12.90;99.90;;;;;;5068542;28;20032;-74
2023/09/07 02:23:58;;;;;;;13.45;5.65;;;12.90;99.90;;;;;;5087281;28;20039;-71
2023/09/07 02:26:24;;;;;;;9.73;6.22;;;12.90;99.90;;;;;;5088427;28;20028;-72
2023/09/07 02:28:49;;;;;;;11.73;6.93;;;12.80;99.90;;;;;;5087504;28;20485;-71
2023/09/07 02:31:15;;;;;;;9.77;5.93;;;12.80;99.90;;;;;;5085970;28;20471;-72
2023/09/07 02:33:40;;;;;;;12.50;5.82;;;12.80;99.90;;;;;;5089267;28;20062;-72
2023/09/07 02:36:06;;;;;;;10.95;5.78;;;12.80;99.90;;;;;;5071950;28;20479;-72
2023/09/07 02:38:32;;;;;;;12.23;6.22;;;12.80;99.90;;;;;;5089438;28;20334;-72
2023/09/07 02:40:58;;;;;;;12.98;6.15;;;12.80;99.90;;;;;;5079764;28;20039;-72
2023/09/07 02:43:24;;;;;;;9.43;5.82;;;12.80;99.90;;;;;;5089224;28;20036;-73
2023/09/07 02:45:50;;;;;;;13.32;6.45;;;12.90;99.90;;;;;;5089926;28;20475;-72
2023/09/07 02:48:16;;;;;;;10.15;6.05;;;12.90;99.90;;;;;;5084234;28;20094;-72
2023/09/07 02:50:42;;;;;;;12.13;6.63;;;12.90;99.90;;;;;;5086402;28;20024;-72
2023/09/07 02:53:08;;;;;;;11.57;6.40;;;12.90;99.90;;;;;;5088125;28;20032;-72
2023/09/07 02:55:34;;;;;;;11.50;6.75;;;12.90;99.90;;;;;;5089686;28;20043;-72
2023/09/07 02:58:03;;;;;;;12.40;6.03;;;12.90;99.90;;;;;;5088884;28;20040;-73
2023/09/07 03:00:29;;;;;;;11.07;6.03;;;12.90;99.90;;;;;;5086795;28;20076;-75
2023/09/07 03:02:56;;;;;;;9.80;5.85;;;13.00;99.90;;;;;;5088830;28;20064;-73
2023/09/07 03:05:22;;;;;;;11.82;6.05;;;13.00;99.90;;;;;;5088421;28;20051;-73
2023/09/07 03:07:47;;;;;;;10.98;6.32;;;12.90;99.90;;;;;;5088682;28;20562;-73
2023/09/07 03:10:13;;;;;;;9.75;5.85;;;12.80;99.90;;;;;;5088911;28;20077;-73
2023/09/07 03:12:39;;;;;;;10.15;5.78;;;12.70;99.90;;;;;;5070286;28;20028;-74
2023/09/07 03:15:06;;;;;;;8.68;5.57;;;12.70;99.90;;;;;;5071412;28;20035;-73
2023/09/07 03:17:31;;;;;;;11.93;6.00;;;12.60;99.90;;;;;;5085116;28;20032;-74
2023/09/07 03:19:57;;;;;;;10.15;5.70;;;12.60;99.90;;;;;;5088068;28;20032;-73
2023/09/07 03:22:23;;;;;;;11.98;6.00;;;12.50;99.90;;;;;;5088156;28;20112;-72
2023/09/07 03:24:52;;;;;;;10.73;6.00;;;12.50;99.90;;;;;;5088759;28;20028;-72
2023/09/07 03:27:17;;;;;;;12.43;5.88;;;12.50;99.90;;;;;;5089484;28;20024;-72
2023/09/07 03:29:44;;;;;;;12.52;5.85;;;12.50;99.90;;;;;;5087204;28;20032;-73
2023/09/07 03:32:10;;;;;;;10.15;5.93;;;12.50;99.90;;;;;;5088140;28;20792;-72
2023/09/07 03:34:36;;;;;;;10.30;5.82;;;12.50;99.90;;;;;;5087367;28;20097;-73
2023/09/07 03:37:02;;;;;;;14.38;6.20;;;12.40;99.90;;;;;;5088933;28;20464;-71
2023/09/07 03:39:28;;;;;;;13.23;6.18;;;12.40;99.90;;;;;;5088348;28;20735;-72
2023/09/07 03:41:54;;;;;;;11.18;6.20;;;12.50;99.90;;;;;;5088493;28;20063;-72
2023/09/07 03:44:19;;;;;;;10.85;5.82;;;12.40;99.90;;;;;;5086314;28;20448;-71
2023/09/07 03:46:45;;;;;;;10.82;5.70;;;12.40;99.90;;;;;;5087961;28;20052;-72
2023/09/07 03:49:10;;;;;;;11.95;6.30;;;12.30;99.90;;;;;;5087908;28;20086;-73
2023/09/07 03:51:36;;;;;;;12.73;5.85;;;12.30;99.90;;;;;;5088534;28;20036;-72
2023/09/07 03:54:02;;;;;;;12.15;5.72;;;12.20;99.90;;;;;;5089367;28;20396;-72
2023/09/07 03:56:27;;;;;;;10.25;6.00;;;12.20;99.90;;;;;;5084557;28;20031;-73
2023/09/07 03:58:53;;;;;;;11.60;5.90;;;12.20;99.90;;;;;;5060421;28;20035;-71
2023/09/07 04:01:18;;;;;;;9.13;5.97;;;12.20;99.90;;;;;;5087211;28;20460;-73
2023/09/07 04:03:44;;;;;;;13.27;6.07;;;12.20;99.90;;;;;;5086669;28;20099;-72
2023/09/07 04:06:10;;;;;;;8.65;5.47;;;12.30;99.90;;;;;;5088073;28;20070;-73
2023/09/07 04:08:35;;;;;;;11.30;5.78;;;12.20;99.90;;;;;;5083951;28;20118;-74
2023/09/07 04:11:05;;;;;;;10.55;5.60;;;12.20;99.90;;;;;;5089022;28;20028;-73
2023/09/07 04:13:31;;;;;;;11.82;6.13;;;12.20;99.90;;;;;;5087680;28;20496;-73
2023/09/07 04:15:56;;;;;;;11.95;5.57;;;12.20;99.90;;;;;;5087251;28;20024;-74
2023/09/07 04:18:22;;;;;;;9.65;5.70;;;12.20;99.90;;;;;;5087523;28;20051;-72
2023/09/07 04:20:48;;;;;;;9.07;5.65;;;12.20;99.90;;;;;;5087091;28;20369;-73
2023/09/07 04:23:13;;;;;;;12.52;5.80;;;12.20;99.90;;;;;;5086660;28;20051;-73
2023/09/07 04:25:39;;;;;;;9.75;5.50;;;12.20;99.90;;;;;;5087891;28;20063;-72
2023/09/07 04:28:05;;;;;;;11.73;5.10;;;12.10;99.90;;;;;;5088722;28;20490;-73
2023/09/07 04:30:32;;;;;;;12.65;5.65;;;12.10;99.90;;;;;;5084855;28;20364;-74
2023/09/07 04:32:58;;;;;;;12.02;5.57;;;12.10;99.90;;;;;;5087194;28;20071;-73
2023/09/07 04:35:30;;;;;;;8.90;5.75;;;12.00;99.90;;;;;;5088951;28;20429;-73
2023/09/07 04:37:56;;;;;;;11.43;5.35;;;11.90;99.90;;;;;;5085064;28;20153;-73
2023/09/07 04:40:22;;;;;;;8.70;5.40;;;11.90;99.90;;;;;;5088500;28;20449;-72
2023/09/07 04:42:48;;;;;;;9.77;6.15;;;11.90;99.90;;;;;;5082811;28;20097;-74
2023/09/07 04:45:13;;;;;;;8.63;5.38;;;11.90;99.90;;;;;;5073446;28;20028;-74
2023/09/07 04:47:39;;;;;;;9.68;5.50;;;11.90;99.90;;;;;;5081849;28;20063;-73
2023/09/07 04:50:06;;;;;;;10.45;5.47;;;11.90;99.90;;;;;;5084006;28;20036;-72
2023/09/07 04:52:32;;;;;;;10.77;5.78;;;11.90;99.90;;;;;;5084975;28;20050;-72
2023/09/07 04:54:57;;;;;;;10.45;5.45;;;11.90;99.90;;;;;;5082828;28;20021;-72
2023/09/07 04:57:23;;;;;;;10.65;5.47;;;11.80;99.90;;;;;;5088464;28;20024;-73
2023/09/07 04:59:49;;;;;;;11.30;5.78;;;11.80;99.90;;;;;;5079302;28;20485;-72
2023/09/07 05:02:14;;;;;;;9.93;5.45;;;11.80;99.90;;;;;;5076187;28;20032;-73
2023/09/07 05:04:40;;;;;;;10.60;5.53;;;11.80;99.90;;;;;;5076544;28;20438;-73
2023/09/07 05:07:05;;;;;;;12.00;6.05;;;11.80;99.90;;;;;;5069606;28;20186;-71
2023/09/07 05:09:31;;;;;;;12.57;6.13;;;11.80;99.90;;;;;;5085797;28;20028;-74
2023/09/07 05:11:57;;;;;;;8.88;5.35;;;11.80;99.90;;;;;;5087875;28;20103;-72
2023/09/07 05:14:25;;;;;;;11.65;5.53;;;11.90;99.90;;;;;;5089483;28;20028;-72
2023/09/07 05:16:51;;;;;;;8.07;4.97;;;11.90;99.90;;;;;;5089882;28;20026;-72
2023/09/07 05:19:17;;;;;;;15.35;6.63;;;11.90;99.90;;;;;;5085805;28;20035;-72
2023/09/07 05:21:42;;;;;;;10.32;5.88;;;11.90;99.90;;;;;;5084103;28;20396;-72
2023/09/07 05:24:08;;;;;;;11.15;6.03;;;12.00;99.90;;;;;;5085939;28;20419;-72
2023/09/07 05:26:34;;;;;;;12.00;6.20;;;12.10;99.90;;;;;;5087525;28;20175;-72
2023/09/07 05:29:00;;;;;;;12.75;5.75;;;12.20;99.90;;;;;;5090578;28;20032;-72
2023/09/07 05:31:25;;;;;;;10.45;5.72;;;12.20;99.90;;;;;;5090086;28;20085;-73
2023/09/07 05:33:53;;;;;;;11.70;5.22;;;12.30;99.90;;;;;;5089379;28;20060;-73
2023/09/07 05:36:19;;;;;;;9.70;5.43;;;12.40;99.90;;;;;;5090143;28;20032;-73
2023/09/07 05:38:45;;;;;;;13.75;5.68;;;12.50;99.90;;;;;;5090682;28;20093;-72
2023/09/07 05:41:10;;;;;;;11.48;5.28;;;12.60;99.90;;;;;;5091379;28;20055;-72
2023/09/07 05:43:36;;;;;;;10.23;5.03;;;12.50;99.90;;;;;;5079874;28;20499;-75
2023/09/07 05:46:02;;;;;;;11.32;5.40;;;12.50;99.90;;;;;;5079978;28;20031;-73
2023/09/07 05:48:28;;;;;;;10.93;5.75;;;12.60;99.90;;;;;;5091737;28;20067;-71
2023/09/07 05:50:54;;;;;;;11.18;5.68;;;12.70;99.90;;;;;;5090704;28;20031;-73
2023/09/07 05:53:20;;;;;;;8.35;4.80;;;12.80;99.90;;;;;;5073026;28;20069;-74
2023/09/07 05:55:46;;;;;;;9.13;5.20;;;13.00;99.90;;;;;;5090712;28;20039;-74
2023/09/07 05:58:13;;;;;;;10.85;5.78;;;13.10;99.90;;;;;;5088963;28;20036;-74
2023/09/07 06:00:39;;;;;;;8.45;5.22;;;13.20;99.90;;;;;;5091344;28;20357;-76
2023/09/07 06:03:06;;;;;;;11.25;5.15;;;13.20;99.90;;;;;;5086844;28;20031;-72
2023/09/07 06:05:33;;;;;;;13.43;6.43;;;13.30;99.90;;;;;;5085941;28;20028;-73
2023/09/07 06:07:59;;;;;;;8.18;5.43;;;13.40;99.90;;;;;;5088927;28;20039;-72
2023/09/07 06:10:24;;;;;;;9.48;5.65;;;13.40;99.90;;;;;;5077177;28;20028;-72
2023/09/07 06:12:50;;;;;;;13.25;5.85;;;13.50;99.90;;;;;;5088633;28;20031;-72
2023/09/07 06:15:16;;;;;;;10.43;5.88;;;13.60;99.90;;;;;;5079631;28;20028;-72
2023/09/07 06:17:42;;;;;;;11.98;5.80;;;13.70;99.90;;;;;;5087081;28;20475;-73
2023/09/07 06:20:09;;;;;;;8.93;5.72;;;13.80;99.90;;;;;;5094919;28;20044;-71
2023/09/07 06:22:34;;;;;;;11.50;5.97;;;13.80;99.90;;;;;;5086969;28;20032;-70
2023/09/07 06:25:00;;;;;;;10.95;6.15;;;14.00;99.90;;;;;;5088388;28;20103;-69
2023/09/07 06:27:26;;;;;;;10.32;5.85;;;14.10;99.90;;;;;;5070809;28;20090;-70
2023/09/07 06:29:52;;;;;;;11.57;5.97;;;14.30;99.90;;;;;;5086978;28;20028;-70
2023/09/07 06:32:18;;;;;;;10.82;5.65;;;14.40;99.90;;;;;;5086969;28;20039;-70
2023/09/07 06:34:44;;;;;;;11.32;6.60;;;14.50;99.90;;;;;;5082393;28;20028;-71
2023/09/07 06:37:11;;;;;;;9.88;6.00;;;14.50;99.90;;;;;;5087007;28;20035;-71
2023/09/07 06:39:37;;;;;;;12.25;7.07;;;14.60;99.90;;;;;;5080551;28;20034;-71
2023/09/07 06:42:03;;;;;;;17.23;7.65;;;14.70;99.90;;;;;;5085734;28;20040;-71
2023/09/07 06:44:29;;;;;;;14.32;6.80;;;14.90;99.90;;;;;;5087940;28;20028;-71
2023/09/07 06:46:55;;;;;;;15.95;7.38;;;15.00;99.90;;;;;;5085088;28;20094;-71
2023/09/07 06:49:22;;;;;;;12.40;6.68;;;15.10;99.90;;;;;;5085722;28;20040;-71
2023/09/07 06:51:48;;;;;;;11.95;6.53;;;15.20;99.90;;;;;;5084087;28;20032;-72
2023/09/07 06:54:13;;;;;;;9.20;6.35;;;15.30;99.90;;;;;;5084556;28;20403;-70
2023/09/07 06:56:39;;;;;;;12.90;7.35;;;15.50;99.90;;;;;;5065941;28;20027;-69
2023/09/07 06:59:05;;;;;;;13.20;7.18;;;15.70;99.90;;;;;;5086569;28;20032;-71
2023/09/07 07:01:30;;;;;;;11.93;8.18;;;16.00;99.90;;;;;;5086347;28;20059;-71
2023/09/07 07:03:56;;;;;;;13.02;7.20;;;16.40;99.90;;;;;;5083413;28;20028;-71
2023/09/07 07:06:23;;;;;;;12.15;7.63;;;16.60;99.90;;;;;;5087077;28;20035;-71
2023/09/07 07:08:48;;;;;;;13.23;7.63;;;16.80;99.90;;;;;;5067087;28;20035;-71
2023/09/07 07:11:14;;;;;;;16.70;7.55;;;17.10;99.90;;;;;;5086152;28;20024;-71
2023/09/07 07:13:39;;;;;;;17.48;7.82;;;17.40;99.90;;;;;;5085491;28;20750;-71
2023/09/07 07:16:06;;;;;;;11.85;7.38;;;17.60;99.90;;;;;;5086215;28;20032;-71
2023/09/07 07:18:32;;;;;;;13.52;7.57;;;17.90;99.90;;;;;;5085267;28;20036;-72
2023/09/07 07:20:57;;;;;;;13.38;7.15;;;18.10;99.90;;;;;;5078000;28;20036;-72
2023/09/07 07:23:23;;;;;;;12.82;7.10;;;18.30;99.90;;;;;;5085900;28;20028;-71
2023/09/07 07:25:48;;;;;;;12.18;7.18;;;18.50;99.90;;;;;;5087686;28;20024;-72
2023/09/07 07:28:14;;;;;;;14.57;7.22;;;18.60;99.90;;;;;;5075236;28;20144;-72
2023/09/07 07:30:40;;;;;;;10.68;7.10;;;18.80;99.90;;;;;;5086987;28;20060;-72
2023/09/07 07:33:06;;;;;;;11.63;6.32;;;19.00;99.90;;;;;;5085165;28;20998;-71
2023/09/07 07:35:34;;;;;;;13.15;6.80;;;19.20;99.90;;;;;;5089421;28;20043;-72
2023/09/07 07:38:01;;;;;;;11.05;6.47;;;19.40;99.90;;;;;;5080293;28;20036;-72
2023/09/07 07:40:27;;;;;;;13.57;6.88;;;19.50;99.90;;;;;;5086959;28;20094;-71
2023/09/07 07:42:53;;;;;;;13.45;6.63;;;19.60;99.90;;;;;;5088681;28;20028;-71
2023/09/07 07:45:20;;;;;;;13.90;7.00;;;19.80;99.90;;;;;;5089455;28;20028;-71
2023/09/07 07:47:46;;;;;;;12.07;6.82;;;19.90;99.90;;;;;;5087247;28;20048;-73
2023/09/07 07:50:12;;;;;;;12.13;6.70;;;20.00;99.90;;;;;;5089155;28;20024;-72
2023/09/07 07:52:37;;;;;;;14.98;6.32;;;20.10;99.90;;;;;;5088058;28;20457;-71
2023/09/07 07:55:03;;;;;;;10.13;6.38;;;20.20;99.90;;;;;;5088200;28;20632;-71
2023/09/07 07:57:29;;;;;;;12.35;6.90;;;20.30;99.90;;;;;;5089043;28;20107;-71
2023/09/07 07:59:56;;;;;;;16.10;6.45;;;20.30;99.90;;;;;;5088305;28;20034;-72
2023/09/07 08:02:22;;;;;;;15.60;6.93;;;20.40;99.90;;;;;;5086216;28;20481;-70
2023/09/07 08:04:47;;;;;;;10.48;6.00;;;20.40;99.90;;;;;;5086402;28;20020;-71
2023/09/07 08:07:13;;;;;;;10.45;6.68;;;20.50;99.90;;;;;;5088646;28;20426;-71
2023/09/07 08:09:39;;;;;;;8.63;6.35;;;20.60;99.90;;;;;;5088996;28;20059;-72
2023/09/07 08:12:05;;;;;;;12.77;6.50;;;20.70;99.90;;;;;;5088154;28;20024;-72
2023/09/07 08:14:31;;;;;;;10.32;6.72;;;20.90;99.90;;;;;;5088798;28;20047;-71
2023/09/07 08:16:58;;;;;;;12.27;6.78;;;20.90;99.90;;;;;;5086023;28;20032;-71
2023/09/07 08:19:24;;;;;;;9.90;6.50;;;21.00;99.90;;;;;;5088653;28;20040;-71
2023/09/07 08:21:50;;;;;;;13.75;6.70;;;21.10;99.90;;;;;;5087727;28;20036;-72
2023/09/07 08:24:15;;;;;;;15.65;6.82;;;21.20;99.90;;;;;;5089083;28;20081;-72
2023/09/07 08:26:41;;;;;;;11.40;7.53;;;21.20;99.90;;;;;;5087348;28;20024;-70
2023/09/07 08:29:08;;;;;;;10.85;6.60;;;21.30;99.90;;;;;;5088094;28;20404;-71
2023/09/07 08:31:40;;;;;;;10.07;6.60;;;21.40;99.90;;;;;;5087134;28;20051;-71
2023/09/07 08:34:14;;;;;;;11.27;7.15;;;21.50;99.90;;;;;;5087424;28;20098;-71
2023/09/07 08:36:40;;;;;;;9.27;6.40;;;21.60;99.90;;;;;;5088024;28;20762;-70
2023/09/07 08:39:12;;;;;;;11.48;7.07;;;21.60;99.90;;;;;;5086929;28;20036;-69
2023/09/07 08:41:43;;;;;;;14.20;6.22;;;21.70;99.90;;;;;;5088453;28;20729;-72
2023/09/07 08:44:15;;;;;;;10.15;6.13;;;21.70;99.90;;;;;;5086746;28;20693;-71
2023/09/07 08:46:42;;;;;;;14.43;7.07;;;21.90;99.90;;;;;;5086298;28;20039;-70
2023/09/07 08:49:08;;;;;;;9.73;6.50;;;22.00;99.90;;;;;;5086420;28;20089;-70
2023/09/07 08:51:37;;;;;;;10.20;6.53;;;22.20;99.90;;;;;;5088464;28;20039;-71
2023/09/07 08:54:03;;;;;;;9.23;6.28;;;22.30;99.90;;;;;;5087594;28;20030;-72
2023/09/07 08:56:29;;;;;;;11.13;6.60;;;22.40;99.90;;;;;;5088070;28;20431;-70
2023/09/07 08:58:55;;;;;;;11.90;7.07;;;22.40;99.90;;;;;;5087561;28;20028;-71
2023/09/07 09:01:23;;;;;;;13.70;6.28;;;22.50;99.90;;;;;;5088390;28;20460;-70
2023/09/07 09:03:50;;;;;;;9.07;6.68;;;22.50;99.90;;;;;;5087323;28;20050;-71
2023/09/07 09:06:20;;;;;;;17.80;7.00;;;22.60;99.90;;;;;;5088179;28;20020;-71
2023/09/07 09:08:54;;;;;;;10.18;6.70;;;22.70;99.90;;;;;;5088172;28;20039;-73
2023/09/07 09:11:21;;;;;;;9.75;6.78;;;22.80;99.90;;;;;;5086593;28;20035;-71
2023/09/07 09:13:47;;;;;;;16.55;6.93;;;22.90;99.90;;;;;;5088121;28;20029;-70
2023/09/07 09:16:14;;;;;;;13.38;7.10;;;23.10;99.90;;;;;;5087346;28;20031;-70
2023/09/07 09:18:56;;;;;;;13.48;6.95;;;23.10;99.90;;;;;;5087200;28;20040;-71
2023/09/07 09:21:23;;;;;;;9.77;6.10;;;23.20;99.90;;;;;;5086727;28;20384;-71
2023/09/07 09:23:51;;;;;;;9.90;6.82;;;23.30;99.90;;;;;;5087816;28;20028;-73
2023/09/07 09:26:17;;;;;;;10.48;6.45;;;23.50;99.90;;;;;;5085939;28;20036;-71
2023/09/07 09:28:46;;;;;;;9.20;6.43;;;23.60;99.90;;;;;;5088132;28;20040;-71
2023/09/07 09:31:14;;;;;;;9.13;6.70;;;23.60;99.90;;;;;;5068507;28;20520;-71
2023/09/07 09:33:41;;;;;;;11.13;6.85;;;23.70;99.90;;;;;;5086897;28;20097;-71
2023/09/07 09:36:07;;;;;;;10.43;6.28;;;23.70;99.90;;;;;;5085016;28;20093;-71
2023/09/07 09:38:34;;;;;;;9.60;6.20;;;23.80;99.90;;;;;;5087947;28;20085;-72
2023/09/07 09:41:00;;;;;;;9.27;6.38;;;24.00;99.90;;;;;;5087216;28;20036;-71
2023/09/07 09:43:26;;;;;;;10.50;6.32;;;24.00;99.90;;;;;;5087808;28;20028;-71
2023/09/07 09:45:53;;;;;;;8.27;6.15;;;24.20;99.90;;;;;;5083703;28;20147;-74
2023/09/07 09:48:22;;;;;;;11.88;5.97;;;24.20;99.90;;;;;;5084844;28;20135;-70
2023/09/07 09:50:49;;;;;;;13.63;6.53;;;24.30;99.90;;;;;;5073225;28;20435;-72
2023/09/07 09:53:20;;;;;;;12.18;6.38;;;24.30;99.90;;;;;;5090866;28;20058;-72
2023/09/07 09:55:52;;;;;;;7.45;5.80;;;24.30;99.90;;;;;;5090475;28;20039;-70
2023/09/07 09:58:18;;;;;;;8.15;5.95;;;24.50;99.90;;;;;;5090374;28;20093;-71
2023/09/07 10:00:45;;;;;;;10.88;6.28;;;24.50;99.90;;;;;;5091543;28;20028;-71
2023/09/07 10:03:17;;;;;;;9.35;6.60;;;24.60;99.90;;;;;;5089682;28;20705;-72
2023/09/07 10:05:46;;;;;;;10.38;6.05;;;24.60;99.90;;;;;;5091436;28;20028;-71
2023/09/07 10:08:15;;;;;;;9.25;6.55;;;24.80;99.90;;;;;;5088548;28;20623;-69
2023/09/07 10:10:47;;;;;;;11.45;6.95;;;24.90;99.90;;;;;;5090889;28;20016;-70
2023/09/07 10:13:16;;;;;;;11.50;6.53;;;25.00;99.90;;;;;;5090513;28;20031;-71
2023/09/07 10:15:42;;;;;;;8.03;6.37;;;25.20;99.90;;;;;;5091064;28;20032;-70
2023/09/07 10:18:13;;;;;;;11.30;7.43;;;25.40;99.90;;;;;;5071009;28;20127;-71
2023/09/07 10:20:55;;;;;;;10.65;6.65;;;25.40;99.90;;;;;;5089394;28;20032;-72
2023/09/07 10:23:22;;;;;;;8.73;6.55;;;25.40;99.90;;;;;;5090915;28;20053;-72
2023/09/07 10:25:52;;;;;;;10.50;6.43;;;25.60;99.90;;;;;;5090925;28;20042;-70
2023/09/07 10:28:23;;;;;;;11.73;6.55;;;25.80;99.90;;;;;;5090876;28;20034;-72
2023/09/07 10:31:13;;;;;;;10.32;6.80;;;25.80;99.90;;;;;;5090620;28;20476;-71
2023/09/07 10:33:39;;;;;;;16.75;6.40;;;25.60;99.90;;;;;;5088629;28;20028;-71
2023/09/07 10:36:05;;;;;;;9.63;6.47;;;25.70;99.90;;;;;;5089917;28;20062;-70
2023/09/07 10:38:32;;;;;;;8.80;6.72;;;25.70;99.90;;;;;;5090333;28;20190;-72
2023/09/07 10:41:00;;;;;;;11.10;6.68;;;25.80;99.90;;;;;;5089924;28;20063;-71
2023/09/07 10:43:27;;;;;;;12.93;6.55;;;26.10;99.90;;;;;;5089661;28;20090;-70
2023/09/07 10:45:54;;;;;;;10.80;6.30;;;26.30;99.90;;;;;;5090335;28;20036;-71
2023/09/07 10:48:20;;;;;;;11.25;6.90;;;26.60;99.90;;;;;;5089913;28;20052;-71
2023/09/07 10:50:47;;;;;;;8.77;6.88;;;26.80;99.90;;;;;;5089548;28;20074;-72
2023/09/07 10:53:14;;;;;;;8.18;6.00;;;26.90;99.90;;;;;;5088185;28;20035;-71
2023/09/07 10:55:43;;;;;;;9.18;6.03;;;27.10;99.90;;;;;;5090442;28;20027;-71
2023/09/07 10:58:10;;;;;;;11.23;6.50;;;27.00;99.90;;;;;;5088445;28;20384;-71
2023/09/07 11:00:36;;;;;;;9.63;7.55;;;26.80;99.90;;;;;;5089205;28;20028;-71
2023/09/07 11:03:11;;;;;;;10.68;6.57;;;26.90;99.90;;;;;;5088571;28;20071;-71
2023/09/07 11:05:38;;;;;;;12.85;6.95;;;27.10;99.90;;;;;;5090219;28;20027;-70
2023/09/07 11:08:07;;;;;;;8.35;6.60;;;27.00;99.90;;;;;;5088229;28;20453;-72
2023/09/07 11:10:34;;;;;;;8.15;6.55;;;27.30;99.90;;;;;;5089294;28;20047;-72
2023/09/07 11:13:06;;;;;;;9.75;6.43;;;27.20;99.90;;;;;;5088553;28;20020;-70
2023/09/07 11:15:33;;;;;;;9.13;6.65;;;27.20;99.90;;;;;;5088284;28;20026;-71
2023/09/07 11:18:05;;;;;;;10.07;6.07;;;27.40;99.90;;;;;;5086829;28;20043;-73
2023/09/07 11:20:31;;;;;;;10.70;6.28;;;27.50;99.90;;;;;;5089069;28;20051;-72
2023/09/07 11:22:57;;;;;;;11.02;5.78;;;27.50;99.90;;;;;;5088101;28;20031;-71
2023/09/07 11:25:22;;;;;;;10.77;6.40;;;27.50;99.90;;;;;;5089685;28;20035;-70
2023/09/07 11:27:48;;;;;;;10.93;5.72;;;27.40;99.90;;;;;;5089721;28;20372;-71
2023/09/07 11:30:14;;;;;;;11.20;6.32;;;27.40;99.90;;;;;;5088548;28;20024;-71
2023/09/07 11:32:42;;;;;;;8.98;6.18;;;27.20;99.90;;;;;;5089611;28;20024;-71
2023/09/07 11:35:09;;;;;;;8.82;6.25;;;27.20;99.90;;;;;;5087781;28;20567;-71
2023/09/07 11:37:35;;;;;;;11.00;6.10;;;27.30;99.90;;;;;;5088627;28;20027;-71
2023/09/07 11:40:04;;;;;;;8.40;6.38;;;27.50;99.90;;;;;;5088514;28;20028;-72
2023/09/07 11:42:29;;;;;;;8.02;5.38;;;27.70;99.90;;;;;;5088412;28;20039;-71
2023/09/07 11:44:55;;;;;;;8.63;6.10;;;27.90;99.90;;;;;;5089418;28;20032;-70
2023/09/07 11:47:21;;;;;;;9.38;6.32;;;28.20;99.90;;;;;;5088253;28;20530;-71
2023/09/07 11:49:48;;;;;;;8.68;5.95;;;28.20;99.90;;;;;;5089072;28;20499;-70
2023/09/07 11:52:14;;;;;;;8.75;6.13;;;28.30;99.90;;;;;;5087601;28;20027;-71
2023/09/07 11:54:40;;;;;;;8.75;6.10;;;28.30;99.70;;;;;;5087336;28;20354;-72
2023/09/07 11:57:05;;;;;;;10.25;6.60;;;28.30;99.90;;;;;;5088200;28;20039;-70
2023/09/07 11:59:32;;;;;;;7.78;5.82;;;28.20;99.50;;;;;;5088306;28;20173;-71
2023/09/07 12:01:58;;;;;;;7.47;5.97;;;28.20;99.90;;;;;;5087109;28;20455;-71
2023/09/07 12:04:23;;;;;;;10.77;6.30;;;28.30;98.40;;;;;;5088461;28;20107;-69
2023/09/07 12:06:49;;;;;;;9.45;6.47;;;28.00;98.60;;;;;;5086969;28;20115;-71
2023/09/07 12:09:17;;;;;;;11.85;6.45;;;27.70;99.20;;;;;;5087566;28;20734;-71
2023/09/07 12:11:43;;;;;;;9.73;7.18;;;27.60;99.30;;;;;;5088753;28;20028;-71
2023/09/07 12:14:09;;;;;;;10.00;6.10;;;27.70;99.30;;;;;;5087154;28;20040;-70
2023/09/07 12:16:34;;;;;;;12.55;6.15;;;27.80;99.30;;;;;;5087085;28;20034;-71
2023/09/07 12:19:00;;;;;;;8.52;5.65;;;27.80;99.90;;;;;;5088182;28;20080;-72
2023/09/07 12:21:26;;;;;;;9.40;5.90;;;28.30;99.90;;;;;;5088617;28;20028;-71
2023/09/07 12:23:51;;;;;;;12.32;6.30;;;28.70;99.10;;;;;;5088696;28;20474;-71
2023/09/07 12:26:19;;;;;;;10.02;6.00;;;28.80;97.30;;;;;;5084776;28;20027;-71
2023/09/07 12:28:44;;;;;;;7.75;6.07;;;28.70;97.60;;;;;;5083775;28;20369;-71
2023/09/07 12:31:11;;;;;;;10.02;5.72;;;28.50;97.30;;;;;;5087194;28;20034;-70
2023/09/07 12:33:37;;;;;;;11.38;6.28;;;28.20;96.90;;;;;;5088405;28;20465;-71
2023/09/07 12:36:05;;;;;;;9.23;5.75;;;27.80;97.00;;;;;;5086495;28;20031;-72